aviador You're here:

KWRB Decoded Metar

MACON in GA, USA
Report Time2018-07-23 00:00:00
UTC Time2018-07-23 00:18:40
Flight Rules vfr VFR
Wind130° at 08 kt
W.Decomp.*RWY 15: 7.6 kt HW 2.5 kt LCW
W.Rank130° ranks 7
Current wind is above 130° avg. (4.6)
Visibility9999 m
Phenomena:N/A
Clouds:Few 045 Hf
Scattered 050 Hf
Broken 100 Hf
Expected CloudBase > 400 ft AGL from Temp-Dew spread
Ceiling10,000 ft
Temp23°C (ISA +9)
Dew Point22°C (94% RH)
QNH1007 hPa
Density Alt1,844 ft
Elevation295 ft
Report Wrong Elevation
Raw Report
KWRB 230000Z 13008KT 10SM FEW045 SCT050 BKN100 23/22 A2974 RMK
AO2A LTG DSNT E-SE TSE00 SLP071=

Extra information for KWRB:More info

Metar Taf Metar & Taf Last 4 Metars F.Rules Stats Wind Profile Meteogram Temp Stats Airport Information Weather charts Add Link Nearby VenuesMetar ALERT Operation Metar Decoded Social comments

AIRNAV info for KWRB